Deloraine, Canada
Current Conditions -  °F | °C
As of 11:35 AM on Sunday 23 Nov 2014 (Local Time) from K06D Reporting Station
Light Snow Light Snow  
Wind Chill:   Ceiling: 500
Heat Index: 19°   Visibility: 3mi
Dew Point: 19°   Wind: 20mph
Humidity: 100%   Direction: 360°N
Pressure: 29.45"   Gusts: NA
Location:  49.18°N, 100.5°W
Report Text: K06D 231735Z AUTO 36017KT 3SM -SN BKN005 M07/M07 A2945 RMK AO2
Loading
Personal Weather Stations






























Interactive Weather Map New forecast layout! Learn more

10-Day Weather Forecast

Advertisements
Track Severe Weather on mobile